Time;durP1;ratioP1;P1;durP2;ratioP2;P2;SDS_P1;SDS_P2;PMS_P1;PMS_P2;Temp;Humidity;BMP_temperature;BMP_pressure;BME280_temperature;BME280_humidity;BME280_pressure;Samples;Min_cycle;Max_cycle;Signal;HPM_P1;HPM_P2
2023/08/19 00:00:51;;;;;;;37.08;30.33;;;;;;;22.02;100.00;100426.91;5062867;28;20040;-79
2023/08/19 00:03:17;;;;;;;33.88;29.88;;;;;;;21.92;100.00;100444.53;5064350;28;20032;-80
2023/08/19 00:05:44;;;;;;;30.02;26.33;;;;;;;21.76;100.00;100455.03;5036228;28;20492;-79
2023/08/19 00:08:10;;;;;;;28.73;25.50;;;;;;;21.57;100.00;100466.06;5062693;28;20033;-79
2023/08/19 00:10:36;;;;;;;28.38;24.45;;;;;;;21.42;100.00;100478.16;5069735;28;20040;-79
2023/08/19 00:13:03;;;;;;;29.85;26.73;;;;;;;21.31;100.00;100474.66;5051621;28;20053;-79
2023/08/19 00:15:29;;;;;;;30.55;26.52;;;;;;;21.19;100.00;100471.44;5069031;28;20081;-80
2023/08/19 00:17:55;;;;;;;31.85;27.02;;;;;;;21.10;100.00;100454.66;5066384;28;20040;-80
2023/08/19 00:20:21;;;;;;;39.00;32.28;;;;;;;21.02;100.00;100444.16;5053885;28;20155;-80
2023/08/19 00:22:48;;;;;;;38.90;32.70;;;;;;;21.01;100.00;100429.50;5069520;28;20048;-80
2023/08/19 00:25:14;;;;;;;34.95;31.08;;;;;;;20.99;100.00;100404.00;5063821;28;20033;-80
2023/08/19 00:27:40;;;;;;;41.85;35.22;;;;;;;21.04;100.00;100392.88;5036764;28;20111;-79
2023/08/19 00:30:07;;;;;;;46.70;37.47;;;;;;;21.07;100.00;100377.56;5051941;28;20032;-82
2023/08/19 00:32:35;;;;;;;44.70;35.90;;;;;;;21.08;100.00;100366.19;5052008;28;20055;-80
2023/08/19 00:35:03;;;;;;;42.47;33.72;;;;;;;21.06;100.00;100356.50;5069135;28;20045;-80
2023/08/19 00:37:31;;;;;;;39.35;33.42;;;;;;;21.04;100.00;100358.75;5052763;28;20041;-80
2023/08/19 00:39:58;;;;;;;37.67;33.15;;;;;;;21.01;100.00;100359.34;5062418;28;20068;-80
2023/08/19 00:42:24;;;;;;;38.25;33.10;;;;;;;21.00;100.00;100366.00;5029711;28;20034;-79
2023/08/19 00:44:52;;;;;;;37.20;31.23;;;;;;;20.93;100.00;100369.13;5059422;28;20083;-79
2023/08/19 00:47:19;;;;;;;34.13;29.05;;;;;;;20.86;100.00;100375.03;5029086;28;20045;-80
2023/08/19 00:49:45;;;;;;;32.92;25.77;;;;;;;20.72;100.00;100396.19;5053356;28;20037;-80
2023/08/19 00:52:11;;;;;;;27.45;24.45;;;;;;;20.62;100.00;100397.09;5051681;28;20040;-80
2023/08/19 00:54:37;;;;;;;32.38;26.70;;;;;;;20.50;100.00;100390.00;5069782;28;20048;-80
2023/08/19 00:57:04;;;;;;;32.92;26.98;;;;;;;20.43;100.00;100391.47;5068862;28;20029;-80
2023/08/19 00:59:30;;;;;;;32.63;26.90;;;;;;;20.32;100.00;100379.63;5041343;28;20502;-80
2023/08/19 01:01:56;;;;;;;35.85;30.15;;;;;;;20.33;100.00;100373.81;5034706;28;20032;-80
2023/08/19 01:04:23;;;;;;;37.00;30.83;;;;;;;20.31;100.00;100364.97;5069738;28;20078;-79
2023/08/19 01:07:01;;;;;;;37.70;31.17;;;;;;;20.30;100.00;100357.78;5067303;28;20051;-80
2023/08/19 01:09:55;;;;;;;34.42;29.40;;;;;;;20.26;100.00;100351.97;5067074;28;20137;-80
2023/08/19 01:12:44;;;;;;;35.13;29.25;;;;;;;20.22;100.00;100356.44;5042126;28;20052;-79
2023/08/19 01:15:18;;;;;;;40.65;32.85;;;;;;;20.23;100.00;100347.03;5068329;28;20140;-79
2023/08/19 01:17:47;;;;;;;45.35;36.25;;;;;;;20.31;100.00;100314.28;5054621;28;20029;-79
2023/08/19 01:20:16;;;;;;;46.80;36.72;;;;;;;20.32;100.00;100314.00;5051945;28;20507;-79
2023/08/19 01:23:13;;;;;;;49.63;38.33;;;;;;;20.48;100.00;100295.28;5062278;28;20024;-79
2023/08/19 01:25:41;;;;;;;51.78;38.50;;;;;;;20.58;100.00;100296.28;5021146;28;20045;-79
2023/08/19 01:28:07;;;;;;;51.05;38.80;;;;;;;20.63;100.00;100287.91;5046644;28;20407;-79
2023/08/19 01:30:34;;;;;;;47.33;38.55;;;;;;;20.59;100.00;100292.41;5044045;28;20040;-79
2023/08/19 01:33:01;;;;;;;46.35;37.30;;;;;;;20.58;100.00;100296.28;5063306;28;20036;-80
2023/08/19 01:35:29;;;;;;;;;;;;;;;20.62;100.00;100280.72;5045850;28;20041;-80
2023/08/19 01:38:03;;;;;;;54.08;39.25;;;;;;;20.67;100.00;100272.34;5059097;28;19974;-79
2023/08/19 01:40:32;;;;;;;61.45;43.10;;;;;;;20.66;100.00;100265.16;5037689;28;20049;-79
2023/08/19 01:43:00;;;;;;;52.00;38.50;;;;;;;20.63;100.00;100276.84;5067726;28;20025;-80
2023/08/19 01:45:27;;;;;;;50.80;38.28;;;;;;;20.55;100.00;100287.44;5048526;28;20052;-80
2023/08/19 01:47:56;;;;;;;47.90;38.67;;;;;;;20.54;100.00;100285.78;5049760;28;20101;-82
2023/08/19 01:50:22;;;;;;;52.22;38.78;;;;;;;20.50;100.00;100287.50;5057864;28;20059;-79
2023/08/19 01:52:48;;;;;;;53.30;39.47;;;;;;;20.44;100.00;100285.91;5048596;28;20384;-81
2023/08/19 01:55:14;;;;;;;56.10;41.95;;;;;;;20.39;100.00;100284.00;5050156;28;20467;-82
2023/08/19 01:57:41;;;;;;;55.83;40.15;;;;;;;20.37;100.00;100286.25;5045990;28;20029;-81
2023/08/19 02:00:08;;;;;;;51.10;39.15;;;;;;;20.31;100.00;100286.56;5048336;28;20488;-80
2023/08/19 02:02:43;;;;;;;60.13;42.78;;;;;;;20.24;100.00;100276.66;5067432;28;20123;-79
2023/08/19 02:05:14;;;;;;;56.50;42.25;;;;;;;20.20;100.00;100275.59;5065642;28;20032;-79
2023/08/19 02:07:41;;;;;;;59.42;43.13;;;;;;;20.18;100.00;100279.78;5047599;28;20551;-80
2023/08/19 02:10:08;;;;;;;71.95;49.28;;;;;;;20.20;100.00;100270.06;5063141;28;20115;-81
2023/08/19 02:12:34;;;;;;;70.32;48.92;;;;;;;20.30;100.00;100252.53;5050358;28;20496;-81
2023/08/19 02:15:01;;;;;;;74.85;48.00;;;;;;;20.39;100.00;100249.94;5049008;28;20037;-81
2023/08/19 02:17:28;;;;;;;78.30;48.90;;;;;;;20.38;100.00;100251.03;5050045;28;20476;-82
2023/08/19 02:19:54;;;;;;;67.53;47.08;;;;;;;20.30;100.00;100246.16;5040124;28;20440;-81
2023/08/19 02:22:21;;;;;;;65.47;46.15;;;;;;;20.34;100.00;100238.91;5045549;28;20094;-82
2023/08/19 02:24:47;;;;;;;60.97;44.47;;;;;;;20.31;100.00;100247.81;5066000;28;20472;-81
2023/08/19 02:27:14;;;;;;;66.80;45.03;;;;;;;20.24;100.00;100256.44;5061832;28;20131;-80
2023/08/19 02:29:40;;;;;;;73.13;48.45;;;;;;;20.18;100.00;100255.69;5060802;28;20111;-81
2023/08/19 02:32:06;;;;;;;72.05;47.70;;;;;;;20.15;100.00;100256.25;5049572;28;20040;-81
2023/08/19 02:34:33;;;;;;;64.93;45.13;;;;;;;20.14;100.00;100251.00;5048203;28;20493;-80
2023/08/19 02:36:59;;;;;;;77.30;50.88;;;;;;;20.12;100.00;100245.75;5067387;28;20116;-81
2023/08/19 02:39:25;;;;;;;66.97;45.20;;;;;;;20.09;100.00;100246.34;5067461;28;20399;-81
2023/08/19 02:41:51;;;;;;;75.07;49.03;;;;;;;20.13;100.00;100250.19;5067149;28;20372;-81
2023/08/19 02:44:17;;;;;;;81.20;51.33;;;;;;;20.16;100.00;100237.69;5049265;28;20036;-78
2023/08/19 02:46:43;;;;;;;87.13;52.13;;;;;;;20.23;100.00;100219.63;5051408;28;20051;-81
2023/08/19 02:49:09;;;;;;;83.32;53.03;;;;;;;20.24;100.00;100209.38;5066062;28;20475;-81
2023/08/19 02:51:37;;;;;;;89.70;54.42;;;;;;;20.31;100.00;100209.03;5060570;28;20069;-81
2023/08/19 02:54:03;;;;;;;85.70;52.30;;;;;;;20.33;100.00;100215.09;5047729;28;20515;-81
2023/08/19 02:56:29;;;;;;;85.22;53.15;;;;;;;20.32;100.00;100221.75;5047190;28;20110;-81
2023/08/19 02:58:55;;;;;;;84.88;52.10;;;;;;;20.38;100.00;100228.88;5055121;28;20081;-81
2023/08/19 03:01:21;;;;;;;77.03;49.97;;;;;;;20.40;100.00;100218.34;5051623;28;20041;-81
2023/08/19 03:03:47;;;;;;;88.72;53.85;;;;;;;20.33;100.00;100223.41;5043416;28;20064;-81
2023/08/19 03:06:14;;;;;;;77.18;48.78;;;;;;;20.32;100.00;100239.22;5051320;28;20036;-80
2023/08/19 03:08:40;;;;;;;82.80;52.28;;;;;;;20.36;100.00;100237.50;5029719;28;20150;-82
2023/08/19 03:11:06;;;;;;;88.38;54.92;;;;;;;20.34;100.00;100227.81;5054150;28;20031;-81
2023/08/19 03:13:32;;;;;;;80.75;51.17;;;19.70;99.90;;;20.32;100.00;100228.13;5053453;28;20127;-80
2023/08/19 03:15:59;;;;;;;78.05;49.50;;;;;;;20.26;100.00;100235.66;5049952;28;20183;-81
2023/08/19 03:18:26;;;;;;;;;;;;;;;20.16;100.00;100238.53;5052401;28;20047;-82
2023/08/19 03:20:58;;;;;;;61.53;43.15;;;;;;;20.06;100.00;100252.47;5069452;28;19920;-81
2023/08/19 03:23:26;;;;;;;56.58;39.92;;;;;;;19.92;100.00;100250.38;5047805;28;20109;-81
2023/08/19 03:25:53;;;;;;;58.42;40.33;;;;;;;19.84;100.00;100256.47;5052713;28;20037;-81
2023/08/19 03:28:19;;;;;;;54.70;40.22;;;;;;;19.71;100.00;100274.56;5049586;28;20044;-81
2023/08/19 03:30:46;;;;;;;348.20;54.55;;;;;;;19.60;100.00;100273.81;5040796;28;20460;-81
2023/08/19 03:33:12;;;;;;;97.85;47.58;;;;;;;19.51;100.00;100273.63;5050933;28;20040;-81
2023/08/19 03:35:38;;;;;;;105.65;57.88;;;;;;;19.51;100.00;100253.41;5071144;28;20072;-80
2023/08/19 03:38:06;;;;;;;110.57;60.50;;;;;;;19.65;100.00;100218.47;5051577;28;20028;-81
2023/08/19 03:40:32;;;;;;;124.53;66.60;;;;;;;19.73;100.00;100205.13;5054145;28;20040;-80
2023/08/19 03:42:59;;;;;;;129.52;65.47;;;;;;;19.80;100.00;100206.44;5036545;28;20055;-80
2023/08/19 03:45:32;;;;;;;113.38;60.72;;;;;;;19.82;100.00;100206.13;5052248;28;20202;-81
2023/08/19 03:47:58;;;;;;;98.78;56.13;;;;;;;19.78;100.00;100218.91;5056421;28;20496;-81
2023/08/19 03:50:25;;;;;;;99.60;56.22;;;;;;;19.78;100.00;100216.13;5042779;28;20047;-81
2023/08/19 03:52:51;;;;;;;105.47;57.53;;;;;;;19.76;100.00;100204.53;5058215;28;20589;-81
2023/08/19 03:55:17;;;;;;;105.32;58.25;;;;;;;19.79;100.00;100202.03;5054781;28;20040;-81
2023/08/19 03:57:43;;;;;;;95.07;55.65;;;;;;;19.74;100.00;100204.81;5060748;28;20039;-82
2023/08/19 04:00:11;;;;;;;86.97;51.33;;;;;;;19.69;100.00;100233.38;5064394;28;20028;-81
2023/08/19 04:02:46;;;;;;;71.78;44.47;;;;;;;19.62;100.00;100232.84;5056048;28;20069;-81
2023/08/19 04:05:12;;;;;;;63.33;41.50;;;;;;;19.54;100.00;100236.22;5068277;28;20048;-81
2023/08/19 04:07:39;;;;;;;66.75;41.50;;;;;;;19.46;100.00;100253.44;5068154;28;20085;-82
2023/08/19 04:10:05;;;;;;;71.43;45.22;;;;;;;19.40;100.00;100252.63;5074373;28;20201;-82
2023/08/19 04:12:32;;;;;;;63.83;41.90;;;;;;;19.35;100.00;100255.44;5056806;28;20040;-81
2023/08/19 04:14:58;;;;;;;60.90;40.55;;;;;;;19.28;100.00;100255.75;5062769;28;20036;-83
2023/08/19 04:17:25;;;;;;;67.73;43.10;;;;;;;19.25;100.00;100251.63;5071769;28;20044;-81
2023/08/19 04:19:51;;;;;;;64.22;41.60;;;;;;;19.24;100.00;100262.97;5090025;28;20037;-82
2023/08/19 04:22:18;;;;;;;72.18;45.25;;;;;;;19.26;100.00;100255.22;5085501;28;20094;-82
2023/08/19 04:24:50;;;;;;;72.00;45.67;;;;;;;19.29;100.00;100256.59;5069684;28;20025;-82
2023/08/19 04:27:17;;;;;;;69.53;44.08;;;;;;;19.29;100.00;100264.88;5061126;28;21524;-82
2023/08/19 04:29:44;;;;;;;72.40;46.30;;;;;;;19.28;100.00;100266.00;5059525;28;20029;-81
2023/08/19 04:32:11;;;;;;;67.20;44.53;;;;;;;19.30;100.00;100259.06;5057413;28;20032;-81
2023/08/19 04:34:38;;;;;;;71.63;44.83;;;;;;;19.33;100.00;100274.25;5065878;28;20079;-81
2023/08/19 04:37:06;;;;;;;77.82;47.53;;;;;;;19.38;100.00;100272.31;5055635;28;20033;-82
2023/08/19 04:39:33;;;;;;;;;;;;;;;19.45;100.00;100265.63;5062506;28;20028;-81
2023/08/19 04:42:07;;;;;;;80.68;47.33;;;;;;;19.49;100.00;100266.69;5055902;28;20035;-81
2023/08/19 04:44:33;;;;;;;81.75;47.97;;;;;;;19.53;100.00;100265.00;5067768;28;20095;-80
2023/08/19 04:46:59;;;;;;;72.88;46.38;;;;;;;19.57;100.00;100257.78;5069240;28;20097;-81
2023/08/19 04:49:27;;;;;;;81.57;49.38;;;;;;;19.60;100.00;100259.97;5059674;28;20031;-81
2023/08/19 04:51:53;;;;;;;89.35;52.05;;;;;;;19.65;100.00;100259.13;5064321;28;20057;-82
2023/08/19 04:54:19;;;;;;;97.43;55.95;;;;;;;19.70;100.00;100245.25;5045047;28;20144;-83
2023/08/19 04:56:46;;;;;;;94.13;53.70;;;;;;;19.75;100.00;100247.97;5056042;28;20748;-80
2023/08/19 04:59:12;;;;;;;96.13;56.67;;;;;;;19.79;100.00;100242.69;5051007;28;20064;-83
2023/08/19 05:01:38;;;;;;;111.25;60.70;;;;;;;19.86;100.00;100232.09;5065393;28;20112;-83
2023/08/19 05:04:05;;;;;;;104.97;59.28;;;;;;;19.95;100.00;100233.19;5041220;28;20045;-83
2023/08/19 05:06:32;;;;;;;107.25;58.22;;;;;;;20.05;100.00;100234.19;5053661;28;20067;-81
2023/08/19 05:08:58;;;;;;;113.80;62.45;;;;;;;20.10;100.00;100235.00;5053240;28;20040;-82
2023/08/19 05:11:24;;;;;;;111.82;60.75;;;;;;;20.15;100.00;100236.06;5050031;28;20040;-80
2023/08/19 05:13:53;;;;;;;125.13;66.38;;;;;;;20.18;100.00;100230.78;5050227;28;20105;-81
2023/08/19 05:16:20;;;;;;;122.80;67.25;;;;;;;20.24;100.00;100212.13;5069107;28;20059;-82
2023/08/19 05:19:02;;;;;;;126.85;70.63;;;;;;;20.37;100.00;100197.59;5058449;28;20048;-80
2023/08/19 05:21:28;;;;;;;127.70;71.57;;;;;;;20.53;100.00;100186.34;5063979;28;20037;-82
2023/08/19 05:23:54;;;;;;;127.35;69.85;;;;;;;20.67;100.00;100183.66;5057083;28;20120;-83
2023/08/19 05:26:21;;;;;;;132.32;74.43;;;;;;;20.78;100.00;100198.22;5059117;28;20051;-84
2023/08/19 05:28:47;;;;;;;127.45;72.63;;;;;;;20.92;100.00;100204.75;5071537;28;20040;-83
2023/08/19 05:31:13;;;;;;;129.63;72.18;;;;;;;20.98;100.00;100208.28;5068393;28;20036;-83
2023/08/19 05:33:39;;;;;;;119.82;70.63;;;;;;;21.13;100.00;100229.44;5061812;28;20029;-83
2023/08/19 05:36:05;;;;;;;118.88;70.90;;;;;;;21.30;100.00;100216.97;5069077;28;20036;-83
2023/08/19 05:38:31;;;;;;;107.75;67.53;;;;;;;21.44;100.00;100233.69;5059002;28;20044;-84
2023/08/19 05:40:57;;;;;;;111.75;68.70;;;;;;;21.58;100.00;100233.75;5059295;28;20039;-84
2023/08/19 05:43:23;;;;;;;100.05;65.45;;;;;;;21.70;100.00;100251.63;5068634;28;20477;-83
2023/08/19 05:45:50;;;;;;;97.25;61.50;;;;;;;21.84;100.00;100260.00;5065156;28;20090;-85
2023/08/19 05:48:16;;;;;;;95.03;62.25;;;;;;;21.94;100.00;100266.53;5058509;28;20438;-86
2023/08/19 05:50:42;;;;;;;86.68;57.45;;;;;;;22.10;100.00;100294.88;5058776;28;20043;-85
2023/08/19 05:53:08;;;;;;;81.18;56.17;;;;;;;22.21;100.00;100323.31;5053781;28;20457;-84
2023/08/19 05:55:34;;;;;;;76.18;53.47;;;;;;;22.24;100.00;100345.75;5059337;28;20037;-85
2023/08/19 05:58:00;;;;;;;74.25;51.95;;;;;;;22.33;100.00;100373.66;5045354;28;20036;-83
2023/08/19 06:00:26;;;;;;;67.45;49.50;;;;;;;22.42;100.00;100391.31;5065930;28;20468;-83
2023/08/19 06:02:52;;;;;;;66.97;48.45;;;;;;;22.55;100.00;100411.13;5057308;28;20041;-81
2023/08/19 06:05:18;;;;;;;63.10;47.03;;;;;;;22.69;100.00;100425.06;5066028;28;20460;-81
2023/08/19 06:07:45;;;;;;;61.30;46.13;;;;;;;22.79;100.00;100440.75;5060238;28;20044;-80
2023/08/19 06:10:11;;;;;;;53.53;41.28;;;;;;;22.85;100.00;100461.78;5059756;28;20116;-78
2023/08/19 06:12:37;;;;;;;52.78;40.70;;;;;;;22.97;100.00;100477.97;5063240;28;20500;-78
2023/08/19 06:15:03;;;;;;;45.45;38.25;;;;;;;23.03;100.00;100482.31;5060011;28;20039;-78
2023/08/19 06:17:30;;;;;;;46.05;36.58;;;;;;;23.11;100.00;100489.97;5067087;28;20035;-79
2023/08/19 06:19:56;;;;;;;43.00;35.08;;;;;;;23.08;100.00;100492.53;5066241;28;20031;-79
2023/08/19 06:22:22;;;;;;;43.42;34.13;;;;;;;23.08;100.00;100523.13;5057435;28;20479;-77
2023/08/19 06:24:48;;;;;;;38.10;32.95;;;;;;;23.25;100.00;100533.72;5051069;28;20047;-75
2023/08/19 06:27:14;;;;;;;39.45;32.58;;;;;;;23.39;100.00;100525.41;5064428;28;20464;-78
2023/08/19 06:29:41;;;;;;;37.97;31.40;;;;;;;23.52;100.00;100543.25;5070725;28;20048;-76
2023/08/19 06:32:07;;;;;;;35.45;28.60;;;;;;;23.61;100.00;100560.06;5072361;28;20098;-79
2023/08/19 06:34:34;;;;;;;32.38;28.25;;;;;;;23.71;100.00;100573.78;5062573;28;21350;-77
2023/08/19 06:37:03;;;;;;;31.55;27.80;;;;;;;23.89;100.00;100594.34;5069501;28;20037;-77
2023/08/19 06:39:32;;;;;;;29.67;26.45;;;;;;;23.98;100.00;100595.28;5064866;28;20087;-76
2023/08/19 06:42:04;;;;;;;30.42;25.88;;;;;;;23.99;100.00;100605.28;5055270;28;20032;-76
2023/08/19 06:44:33;;;;;;;28.77;25.38;;;;;;;24.11;100.00;100609.53;5058222;28;20105;-78
2023/08/19 06:47:02;;;;;;;32.75;26.08;;;;;;;24.31;100.00;100601.91;5065166;28;20071;-78
2023/08/19 06:49:29;;;;;;;27.63;24.10;;;;;;;24.43;100.00;100621.72;5062511;28;20146;-77
2023/08/19 06:51:55;;;;;;;27.50;24.42;;;;;;;24.39;100.00;100626.22;5060931;28;20025;-78
2023/08/19 06:54:22;;;;;;;28.30;25.10;;;;;;;24.50;100.00;100636.06;5071549;28;20125;-78
2023/08/19 06:57:05;;;;;;;28.27;25.17;;;;;;;24.68;100.00;100639.84;5072826;28;20040;-78
2023/08/19 06:59:38;;;;;;;27.40;22.25;;;;;;;24.76;100.00;100649.47;5070630;28;20034;-78
2023/08/19 07:02:06;;;;;;;25.83;22.50;;;;;;;25.03;100.00;100672.84;5048633;28;20381;-79
2023/08/19 07:04:33;;;;;;;;;;;;;;;25.20;100.00;100688.91;5075100;28;20032;-78
2023/08/19 07:07:03;;;;;;;25.02;21.02;;;;;;;25.37;100.00;100693.81;5075482;28;20291;-78
2023/08/19 07:09:30;;;;;;;25.10;20.60;;;;;;;25.30;100.00;100690.63;5064078;28;20029;-78
2023/08/19 07:11:57;;;;;;;23.77;20.07;;;;;;;25.36;100.00;100694.94;5070277;28;20071;-78
2023/08/19 07:14:25;;;;;;;27.50;21.73;;;;;;;25.47;100.00;100698.34;5074532;28;20032;-79
2023/08/19 07:16:54;;;;;;;25.17;21.70;;;;;;;25.61;100.00;100681.53;5067713;28;20053;-78
2023/08/19 07:19:27;;;;;;;21.27;18.27;;;;;;;25.70;100.00;100717.91;5074382;28;20591;-78
2023/08/19 07:21:56;;;;;;;24.60;20.52;;;;;;;25.69;100.00;100708.69;5074705;28;20048;-78
2023/08/19 07:24:22;;;;;;;23.27;18.65;;;;;;;25.85;100.00;100708.31;5073235;28;20086;-78
2023/08/19 07:26:50;;;;;;;23.58;19.20;;;;;;;25.99;100.00;100706.25;5034856;28;20060;-78
2023/08/19 07:29:16;;;;;;;24.42;19.52;;;;;;;25.88;100.00;100718.84;5052014;28;20107;-78
2023/08/19 07:31:42;;;;;;;21.80;18.42;;;;;;;25.87;100.00;100725.56;5072989;28;20048;-78
2023/08/19 07:34:09;;;;;;;23.75;19.73;;;;;;;25.97;100.00;100722.50;5064198;28;20044;-78
2023/08/19 07:36:35;;;;;;;21.80;19.42;;;;;;;26.21;100.00;100726.13;5046397;28;20036;-78
2023/08/19 07:39:03;;;;;;;22.83;18.42;;;;;;;26.18;100.00;100744.34;5068467;28;20563;-78
2023/08/19 07:41:30;;;;;;;22.50;18.67;;;;;;;26.22;100.00;100739.75;5063990;28;20041;-78
2023/08/19 07:43:56;;;;;;;20.67;17.67;;;;;;;26.12;100.00;100737.22;5071156;28;20029;-78
2023/08/19 07:46:22;;;;;;;21.13;16.33;;;;;;;26.13;100.00;100733.28;5071035;28;20028;-78
2023/08/19 07:48:48;;;;;;;20.02;16.98;;;;;;;26.10;100.00;100742.31;5064859;28;20033;-78
2023/08/19 07:51:14;;;;;;;18.95;16.77;;;;;;;26.43;100.00;100736.41;5053556;28;20537;-78
2023/08/19 07:53:41;;;;;;;19.80;16.95;;;;;;;26.66;100.00;100742.75;5069508;28;20056;-78
2023/08/19 07:56:07;;;;;;;18.20;16.17;;;;;;;26.80;100.00;100755.78;5070929;28;20115;-78
2023/08/19 07:58:34;;;;;;;18.05;14.60;;;;;;;26.87;100.00;100764.53;5070885;28;20025;-78
2023/08/19 08:01:00;;;;;;;16.95;14.45;;;;;;;27.07;100.00;100767.88;5069459;28;20104;-78
2023/08/19 08:03:26;;;;;;;17.02;13.32;;;;;;;27.16;100.00;100771.50;5065204;28;20496;-78
2023/08/19 08:05:52;;;;;;;16.27;13.80;;;;;;;27.31;100.00;100766.59;5061066;28;20044;-78
2023/08/19 08:08:19;;;;;;;17.42;14.50;;;;;;;27.50;100.00;100757.88;5054206;28;20056;-79
2023/08/19 08:10:45;;;;;;;15.05;13.40;;;;;;;27.43;100.00;100767.59;5069389;28;20041;-78
2023/08/19 08:13:11;;;;;;;16.73;13.80;;;;;;;27.68;100.00;100755.91;5070323;28;20071;-79
2023/08/19 08:15:37;;;;;;;15.70;14.10;;;;;;;27.64;100.00;100766.13;5052752;28;20128;-78
2023/08/19 08:18:03;;;;;;;15.27;13.15;;;;;;;27.84;100.00;100767.41;5070287;28;20113;-78
2023/08/19 08:20:30;;;;;;;16.75;13.48;;;;;;;28.07;100.00;100767.22;5070542;28;20040;-78
2023/08/19 08:22:56;;;;;;;14.38;12.60;;;;;;;28.19;100.00;100781.41;5070699;28;20029;-78
2023/08/19 08:25:22;;;;;;;14.65;11.93;;;;;;;28.32;100.00;100779.56;5051745;28;20145;-79
2023/08/19 08:27:49;;;;;;;13.18;11.82;;;;;;;28.20;100.00;100777.47;5070391;28;20093;-79
2023/08/19 08:30:15;;;;;;;12.10;10.93;;;;;;;28.60;100.00;100769.88;5064583;28;20095;-79
2023/08/19 08:32:41;;;;;;;12.57;11.27;;;;;;;28.49;100.00;100773.06;5070410;28;20067;-77
2023/08/19 08:35:07;;;;;;;11.98;10.65;;;;;;;28.48;100.00;100773.38;5070256;28;20067;-78
2023/08/19 08:37:34;;;;;;;12.75;10.10;;;;;;;28.62;100.00;100773.16;5070720;28;20033;-78
2023/08/19 08:40:00;;;;;;;11.57;10.48;;;;;;;28.71;100.00;100776.78;5070454;28;20114;-79
2023/08/19 08:42:27;;;;;;;11.85;10.60;;;;;;;28.75;100.00;100776.91;5068181;28;20454;-78
2023/08/19 08:44:54;;;;;;;15.50;10.70;;;;;;;29.12;100.00;100777.22;5070722;28;20097;-77
2023/08/19 08:47:20;;;;;;;12.17;10.30;;;;;;;29.11;100.00;100782.00;5070806;28;20063;-78
2023/08/19 08:49:49;;;;;;;13.50;9.95;;;;;;;29.12;100.00;100769.59;5070334;28;20496;-77
2023/08/19 08:52:15;;;;;;;11.63;10.30;;;;;;;29.11;100.00;100769.97;5070095;28;20036;-78
2023/08/19 08:54:45;;;;;;;11.13;10.02;;;;;;;29.21;100.00;100765.94;5046970;28;20689;-77
2023/08/19 08:57:12;;;;;;;11.10;10.00;;;;;;;29.53;100.00;100772.78;5070337;28;20032;-78
2023/08/19 08:59:38;;;;;;;12.85;9.50;;;;;;;29.49;100.00;100771.84;5070205;28;20105;-79
2023/08/19 09:02:08;;;;;;;10.25;8.70;;;;;;;29.79;100.00;100771.72;5069466;28;20120;-78
2023/08/19 09:04:35;;;;;;;9.85;8.85;;;;;;;30.04;100.00;100768.22;5063087;28;20365;-78
2023/08/19 09:07:08;;;;;;;10.13;8.70;;;;;;;30.05;100.00;100769.88;5050586;28;20033;-78
2023/08/19 09:09:36;;;;;;;9.65;8.75;;;;;;;30.14;100.00;100762.97;5067896;28;20698;-78
2023/08/19 09:12:07;;;;;;;12.15;8.68;;;;;;;30.31;100.00;100771.56;5048298;28;20053;-78
2023/08/19 09:14:43;;;;;;;8.40;7.53;;;;;;;30.28;100.00;100770.25;5070072;28;20047;-79
2023/08/19 09:17:14;;;;;;;8.93;7.15;;;;;;;30.53;100.00;100768.31;5068788;28;20476;-78
2023/08/19 09:19:40;;;;;;;9.48;7.03;;;;;;;30.67;100.00;100770.81;5073501;28;20181;-78
2023/08/19 09:22:16;;;;;;;8.93;7.10;;;;;;;30.94;100.00;100776.06;5070163;28;20033;-78
2023/08/19 09:24:42;;;;;;;7.72;6.93;;;;;;;31.06;100.00;100778.03;5060839;28;20025;-78
2023/08/19 09:27:08;;;;;;;8.43;6.60;;;;;;;30.96;100.00;100770.88;5065567;28;20033;-78
2023/08/19 09:29:35;;;;;;;10.02;6.38;;;;;;;31.19;100.00;100776.88;5064229;28;20051;-77
2023/08/19 09:32:02;;;;;;;7.50;6.10;;;;;;;31.58;100.00;100776.41;5067702;28;20124;-78
2023/08/19 09:34:32;;;;;;;8.98;6.30;;;;;;;31.81;100.00;100775.88;5068839;28;20294;-77
2023/08/19 09:36:58;;;;;;;6.88;6.10;;;;;;;31.94;100.00;100774.63;5068689;28;20040;-77
2023/08/19 09:39:33;;;;;;;8.02;5.85;;;;;;;32.10;100.00;100763.38;5065435;28;20054;-78
2023/08/19 09:41:59;;;;;;;6.43;5.80;;;;;;;32.19;100.00;100773.66;5061640;28;20044;-77
2023/08/19 09:44:29;;;;;;;6.13;5.18;;;;;;;32.62;97.41;100765.50;5042449;28;20123;-78
2023/08/19 09:46:56;;;;;;;6.90;5.43;;;;;;;32.84;100.00;100758.38;5063765;28;20036;-78
2023/08/19 09:49:23;;;;;;;7.00;5.38;;;;;;;32.50;100.00;100750.31;5068104;28;20433;-80
2023/08/19 09:51:54;;;;;;;8.88;5.25;;;;;;;32.12;100.00;100748.91;5042612;28;20028;-80
2023/08/19 09:54:20;;;;;;;7.22;5.40;;;;;;;32.40;100.00;100748.03;5066466;28;20404;-87
2023/08/19 09:56:55;;;;;;;8.63;5.28;;;;;;;32.65;100.00;100754.28;5063379;28;20029;-82
2023/08/19 09:59:24;;;;;;;7.28;5.40;;;;;;;32.80;100.00;100749.81;5051776;28;20064;-87
2023/08/19 10:01:52;;;;;;;7.38;5.07;;;;;;;33.10;100.00;100752.13;5067661;28;20047;-81
2023/08/19 10:04:21;;;;;;;5.82;5.07;;;;;;;33.44;100.00;100750.88;5057841;28;20025;-82
2023/08/19 10:06:51;;;;;;;6.07;4.47;;;;;;;33.37;94.23;100754.31;5052329;28;20101;-84
2023/08/19 10:09:23;;;;;;;6.05;4.60;;;;;;;33.31;93.63;100745.31;5068674;28;20032;-81
2023/08/19 10:11:52;;;;;;;7.80;5.28;;;;;;;33.59;100.00;100749.16;5060793;28;20043;-81
2023/08/19 10:14:28;;;;;;;7.20;4.93;;;;;;;34.09;93.84;100750.13;5040423;28;20430;-81
2023/08/19 10:16:55;;;;;;;5.75;5.00;;;;;;;34.85;100.00;100759.88;5055874;28;20029;-80
2023/08/19 10:19:22;;;;;;;;;;;;;;;34.95;67.17;100754.75;5058139;28;20429;-85
2023/08/19 10:21:52;;;;;;;5.15;3.97;;;;;;;36.07;75.81;100756.19;5064284;28;19916;-84
2023/08/19 10:24:18;;;;;;;5.90;3.90;;;;;;;36.14;64.30;100759.09;5060434;28;20087;-85
2023/08/19 10:26:48;;;;;;;4.93;4.03;;;;;;;36.80;74.13;100759.66;5062470;28;20044;-86
2023/08/19 10:29:15;;;;;;;5.50;4.20;;;;;;;36.62;60.29;100766.00;5052586;28;20044;-85
2023/08/19 10:31:42;;;;;;;6.45;4.10;;;;;;;37.44;60.13;100764.06;5058541;28;20044;-85
2023/08/19 10:34:25;;;;;;;4.75;3.65;;;;;;;37.71;49.40;100758.09;5055597;28;20067;-86
2023/08/19 10:37:10;;;;;;;4.68;3.90;;;;;;;38.65;55.41;100766.75;5061176;28;20040;-85
2023/08/19 10:39:36;;;;;;;6.50;3.05;;;;;;;38.83;40.84;100758.19;5068717;28;20065;-83
2023/08/19 10:42:03;;;;;;;5.15;2.92;;;;;;;38.90;38.07;100753.69;5069541;28;20112;-82
2023/08/19 10:44:33;;;;;;;5.88;3.10;;;;;;;38.63;37.96;100757.00;5049905;28;20189;-82
2023/08/19 10:47:10;;;;;;;4.20;2.80;;;;;;;38.85;37.26;100740.66;5064328;28;20481;-83
2023/08/19 10:49:37;;;;;;;6.18;3.08;;;;;;;39.05;40.10;100763.03;5063992;28;20032;-82
2023/08/19 10:52:04;;;;;;;5.13;3.08;;;;;;;39.23;37.51;100746.69;5040834;28;20488;-83
2023/08/19 10:54:40;;;;;;;4.53;3.00;;;;;;;38.79;41.18;100759.41;5061153;28;20128;-81
2023/08/19 10:57:17;;;;;;;7.65;2.92;;;;;;;38.55;35.67;100742.75;5039403;28;20042;-84
2023/08/19 10:59:47;;;;;;;6.78;2.90;;;;;;;38.24;36.04;100736.66;5058821;28;20431;-86
2023/08/19 11:02:14;;;;;;;5.68;3.20;;;;;;;38.42;40.54;100741.50;5069075;28;20036;-85
2023/08/19 11:04:41;;;;;;;;;;;;;;;39.26;39.32;100737.31;5050597;28;20094;-81
2023/08/19 11:07:07;;;;;;;6.03;2.70;;;;;;;40.49;36.97;100752.06;5063091;28;19923;-83
2023/08/19 11:09:34;;;;;;;5.05;2.90;;;;;;;40.62;38.15;100752.34;5055784;28;20036;-86